sensor_id;sensor_type;location;lat;lon;timestamp;pressure;altitude;pressure_sealevel;temperature;humidity
60583;BME280;46415;47.536;19.066;2023-08-06T00:03:02;-18732.88;;;18.59;100.00
60583;BME280;46415;47.536;19.066;2023-08-06T00:06:05;-18732.47;;;18.58;100.00
60583;BME280;46415;47.536;19.066;2023-08-06T00:09:07;-18730.44;;;18.50;100.00
60583;BME280;46415;47.536;19.066;2023-08-06T00:12:10;-18730.31;;;18.50;100.00
60583;BME280;46415;47.536;19.066;2023-08-06T00:15:13;-18730.72;;;18.51;100.00
60583;BME280;46415;47.536;19.066;2023-08-06T00:18:16;-18732.06;;;18.56;100.00
60583;BME280;46415;47.536;19.066;2023-08-06T00:21:18;-18732.63;;;18.58;100.00
60583;BME280;46415;47.536;19.066;2023-08-06T00:24:21;-18733.03;;;18.60;100.00
60583;BME280;46415;47.536;19.066;2023-08-06T00:27:23;-18733.97;;;18.63;100.00
60583;BME280;46415;47.536;19.066;2023-08-06T00:30:26;-18736.16;;;18.71;100.00
60583;BME280;46415;47.536;19.066;2023-08-06T00:33:29;-18738.47;;;18.80;100.00
60583;BME280;46415;47.536;19.066;2023-08-06T00:36:31;-18737.91;;;18.78;100.00
60583;BME280;46415;47.536;19.066;2023-08-06T00:39:35;-18736.84;;;18.74;100.00
60583;BME280;46415;47.536;19.066;2023-08-06T00:42:38;-18735.87;;;18.70;100.00
60583;BME280;46415;47.536;19.066;2023-08-06T00:45:40;-18737.25;;;18.75;100.00
60583;BME280;46415;47.536;19.066;2023-08-06T00:48:43;-18738.87;;;18.82;100.00
60583;BME280;46415;47.536;19.066;2023-08-06T00:51:45;-18739.56;;;18.84;100.00
60583;BME280;46415;47.536;19.066;2023-08-06T00:54:48;-18741.19;;;18.90;100.00
60583;BME280;46415;47.536;19.066;2023-08-06T00:57:51;-18741.72;;;18.92;100.00
60583;BME280;46415;47.536;19.066;2023-08-06T01:00:55;-18743.91;;;19.00;100.00
60583;BME280;46415;47.536;19.066;2023-08-06T01:03:58;-18743.91;;;19.00;100.00
60583;BME280;46415;47.536;19.066;2023-08-06T01:07:03;-18743.62;;;18.99;100.00
60583;BME280;46415;47.536;19.066;2023-08-06T01:13:31;-18742.53;;;18.95;100.00
60583;BME280;46415;47.536;19.066;2023-08-06T01:16:36;-18742.53;;;18.95;100.00
60583;BME280;46415;47.536;19.066;2023-08-06T01:19:40;-18739.97;;;18.86;100.00
60583;BME280;46415;47.536;19.066;2023-08-06T01:22:42;-18737.91;;;18.78;100.00
60583;BME280;46415;47.536;19.066;2023-08-06T01:31:50;-18733.16;;;18.60;100.00
60583;BME280;46415;47.536;19.066;2023-08-06T01:34:54;-18730.16;;;18.49;100.00
60583;BME280;46415;47.536;19.066;2023-08-06T01:37:57;-18728.00;;;18.41;100.00
60583;BME280;46415;47.536;19.066;2023-08-06T01:41:00;-18726.50;;;18.35;100.00
60583;BME280;46415;47.536;19.066;2023-08-06T01:44:03;-18727.31;;;18.39;100.00
60583;BME280;46415;47.536;19.066;2023-08-06T01:47:06;-18727.03;;;18.37;100.00
60583;BME280;46415;47.536;19.066;2023-08-06T01:50:09;-18726.63;;;18.36;100.00
60583;BME280;46415;47.536;19.066;2023-08-06T01:53:11;-18725.13;;;18.30;100.00
60583;BME280;46415;47.536;19.066;2023-08-06T01:56:14;-18724.84;;;18.29;100.00
60583;BME280;46415;47.536;19.066;2023-08-06T01:59:16;-18724.47;;;18.28;100.00
60583;BME280;46415;47.536;19.066;2023-08-06T02:02:19;-18725.13;;;18.30;100.00
60583;BME280;46415;47.536;19.066;2023-08-06T02:05:22;-18724.47;;;18.28;100.00
60583;BME280;46415;47.536;19.066;2023-08-06T02:08:24;-18723.91;;;18.26;100.00
60583;BME280;46415;47.536;19.066;2023-08-06T02:11:27;-18723.38;;;18.24;100.00
60583;BME280;46415;47.536;19.066;2023-08-06T02:14:29;-18724.59;;;18.28;100.00
60583;BME280;46415;47.536;19.066;2023-08-06T02:17:32;-18724.84;;;18.29;100.00
60583;BME280;46415;47.536;19.066;2023-08-06T02:20:34;-18725.28;;;18.31;100.00
60583;BME280;46415;47.536;19.066;2023-08-06T02:23:39;-18726.34;;;18.35;100.00
60583;BME280;46415;47.536;19.066;2023-08-06T02:26:42;-18727.59;;;18.40;100.00
60583;BME280;46415;47.536;19.066;2023-08-06T02:29:44;-18726.75;;;18.36;100.00
60583;BME280;46415;47.536;19.066;2023-08-06T02:32:47;-18726.09;;;18.34;100.00
60583;BME280;46415;47.536;19.066;2023-08-06T02:35:50;-18727.03;;;18.37;100.00
60583;BME280;46415;47.536;19.066;2023-08-06T02:38:52;-18726.50;;;18.35;100.00
60583;BME280;46415;47.536;19.066;2023-08-06T02:41:55;-18725.81;;;18.33;100.00
60583;BME280;46415;47.536;19.066;2023-08-06T02:44:58;-18725.13;;;18.30;100.00
60583;BME280;46415;47.536;19.066;2023-08-06T02:48:00;-18725.41;;;18.31;100.00
60583;BME280;46415;47.536;19.066;2023-08-06T02:51:04;-18725.41;;;18.31;100.00
60583;BME280;46415;47.536;19.066;2023-08-06T02:54:07;-18725.28;;;18.31;100.00
60583;BME280;46415;47.536;19.066;2023-08-06T02:57:10;-18725.41;;;18.31;100.00
60583;BME280;46415;47.536;19.066;2023-08-06T03:00:13;-18724.19;;;18.27;100.00
60583;BME280;46415;47.536;19.066;2023-08-06T03:03:16;-18724.84;;;18.29;100.00
60583;BME280;46415;47.536;19.066;2023-08-06T03:06:19;-18724.19;;;18.27;100.00
60583;BME280;46415;47.536;19.066;2023-08-06T03:09:22;-18723.78;;;18.25;100.00
60583;BME280;46415;47.536;19.066;2023-08-06T03:12:26;-18722.97;;;18.22;100.00
60583;BME280;46415;47.536;19.066;2023-08-06T03:15:28;-18722.41;;;18.20;100.00
60583;BME280;46415;47.536;19.066;2023-08-06T03:18:31;-18722.28;;;18.20;100.00
60583;BME280;46415;47.536;19.066;2023-08-06T03:21:35;-18723.50;;;18.24;100.00
60583;BME280;46415;47.536;19.066;2023-08-06T03:24:38;-18724.84;;;18.29;100.00
60583;BME280;46415;47.536;19.066;2023-08-06T03:27:42;-18725.41;;;18.31;100.00
60583;BME280;46415;47.536;19.066;2023-08-06T03:30:45;-18723.91;;;18.26;100.00
60583;BME280;46415;47.536;19.066;2023-08-06T03:33:48;-18722.69;;;18.21;100.00
60583;BME280;46415;47.536;19.066;2023-08-06T03:36:51;-18721.88;;;18.18;100.00
60583;BME280;46415;47.536;19.066;2023-08-06T03:39:54;-18720.78;;;18.14;100.00
60583;BME280;46415;47.536;19.066;2023-08-06T03:42:56;-18719.16;;;18.08;100.00
60583;BME280;46415;47.536;19.066;2023-08-06T03:45:59;-18719.69;;;18.10;100.00
60583;BME280;46415;47.536;19.066;2023-08-06T03:49:02;-18718.88;;;18.07;100.00
60583;BME280;46415;47.536;19.066;2023-08-06T03:52:05;-18719.69;;;18.10;100.00
60583;BME280;46415;47.536;19.066;2023-08-06T03:55:08;-18719.56;;;18.10;100.00
60583;BME280;46415;47.536;19.066;2023-08-06T03:58:10;-18720.38;;;18.13;100.00
60583;BME280;46415;47.536;19.066;2023-08-06T04:01:13;-18720.78;;;18.14;100.00
60583;BME280;46415;47.536;19.066;2023-08-06T04:04:16;-18722.81;;;18.22;100.00
60583;BME280;46415;47.536;19.066;2023-08-06T04:07:19;-18724.31;;;18.27;100.00
60583;BME280;46415;47.536;19.066;2023-08-06T04:10:22;-18722.00;;;18.19;100.00
60583;BME280;46415;47.536;19.066;2023-08-06T04:13:24;-18714.38;;;17.90;100.00
60583;BME280;46415;47.536;19.066;2023-08-06T04:16:27;-18710.72;;;17.77;100.00
60583;BME280;46415;47.536;19.066;2023-08-06T04:19:30;-18709.09;;;17.71;100.00
60583;BME280;46415;47.536;19.066;2023-08-06T04:22:33;-18707.19;;;17.64;100.00
60583;BME280;46415;47.536;19.066;2023-08-06T04:25:35;-18705.81;;;17.59;100.00
60583;BME280;46415;47.536;19.066;2023-08-06T04:28:38;-18705.53;;;17.58;100.00
60583;BME280;46415;47.536;19.066;2023-08-06T04:31:40;-18705.00;;;17.55;100.00
60583;BME280;46415;47.536;19.066;2023-08-06T04:34:43;-18704.03;;;17.52;100.00
60583;BME280;46415;47.536;19.066;2023-08-06T04:37:46;-18702.00;;;17.44;100.00
60583;BME280;46415;47.536;19.066;2023-08-06T04:40:49;-18702.00;;;17.44;100.00
60583;BME280;46415;47.536;19.066;2023-08-06T04:43:52;-18701.59;;;17.43;100.00
60583;BME280;46415;47.536;19.066;2023-08-06T04:46:54;-18700.50;;;17.39;100.00
60583;BME280;46415;47.536;19.066;2023-08-06T04:49:57;-18701.19;;;17.41;100.00
60583;BME280;46415;47.536;19.066;2023-08-06T04:53:00;-18698.47;;;17.31;100.00
60583;BME280;46415;47.536;19.066;2023-08-06T04:56:02;-18697.38;;;17.27;100.00
60583;BME280;46415;47.536;19.066;2023-08-06T04:59:05;-18698.19;;;17.30;100.00
60583;BME280;46415;47.536;19.066;2023-08-06T05:02:08;-18700.38;;;17.38;100.00
60583;BME280;46415;47.536;19.066;2023-08-06T05:05:10;-18701.88;;;17.44;100.00
60583;BME280;46415;47.536;19.066;2023-08-06T05:08:16;-18700.91;;;17.40;100.00
60583;BME280;46415;47.536;19.066;2023-08-06T05:11:21;-18702.53;;;17.46;100.00
60583;BME280;46415;47.536;19.066;2023-08-06T05:14:24;-18701.72;;;17.43;100.00
60583;BME280;46415;47.536;19.066;2023-08-06T05:17:27;-18702.28;;;17.45;100.00
60583;BME280;46415;47.536;19.066;2023-08-06T05:20:29;-18703.91;;;17.51;100.00
60583;BME280;46415;47.536;19.066;2023-08-06T05:23:32;-18705.00;;;17.55;100.00
60583;BME280;46415;47.536;19.066;2023-08-06T05:26:34;-18704.72;;;17.54;100.00
60583;BME280;46415;47.536;19.066;2023-08-06T05:29:37;-18704.44;;;17.53;100.00
60583;BME280;46415;47.536;19.066;2023-08-06T05:32:39;-18702.53;;;17.46;100.00
60583;BME280;46415;47.536;19.066;2023-08-06T05:35:42;-18702.81;;;17.47;100.00
60583;BME280;46415;47.536;19.066;2023-08-06T05:38:44;-18702.00;;;17.44;100.00
60583;BME280;46415;47.536;19.066;2023-08-06T05:41:47;-18702.00;;;17.44;100.00
60583;BME280;46415;47.536;19.066;2023-08-06T05:44:49;-18703.38;;;17.49;100.00
60583;BME280;46415;47.536;19.066;2023-08-06T05:47:52;-18701.19;;;17.41;100.00
60583;BME280;46415;47.536;19.066;2023-08-06T05:50:56;-18699.69;;;17.36;100.00
60583;BME280;46415;47.536;19.066;2023-08-06T05:53:59;-18701.03;;;17.41;100.00
60583;BME280;46415;47.536;19.066;2023-08-06T05:57:01;-18699.69;;;17.36;100.00
60583;BME280;46415;47.536;19.066;2023-08-06T06:00:04;-18699.56;;;17.35;100.00
60583;BME280;46415;47.536;19.066;2023-08-06T06:03:13;-18699.00;;;17.33;100.00
60583;BME280;46415;47.536;19.066;2023-08-06T06:06:16;-18699.69;;;17.36;100.00
60583;BME280;46415;47.536;19.066;2023-08-06T06:09:20;-18700.38;;;17.38;100.00
60583;BME280;46415;47.536;19.066;2023-08-06T06:12:22;-18700.09;;;17.37;100.00
60583;BME280;46415;47.536;19.066;2023-08-06T06:15:26;-18701.88;;;17.44;100.00
60583;BME280;46415;47.536;19.066;2023-08-06T06:18:28;-18702.41;;;17.46;100.00
60583;BME280;46415;47.536;19.066;2023-08-06T06:21:31;-18704.59;;;17.54;100.00
60583;BME280;46415;47.536;19.066;2023-08-06T06:24:33;-18707.31;;;17.64;100.00
60583;BME280;46415;47.536;19.066;2023-08-06T06:27:36;-18710.44;;;17.76;100.00
60583;BME280;46415;47.536;19.066;2023-08-06T06:30:38;-18712.75;;;17.84;100.00
60583;BME280;46415;47.536;19.066;2023-08-06T06:33:41;-18715.19;;;17.93;100.00
60583;BME280;46415;47.536;19.066;2023-08-06T06:36:43;-18711.00;;;17.78;100.00
60583;BME280;46415;47.536;19.066;2023-08-06T06:39:46;-18712.91;;;17.85;100.00
60583;BME280;46415;47.536;19.066;2023-08-06T06:42:48;-18712.63;;;17.84;100.00
60583;BME280;46415;47.536;19.066;2023-08-06T06:46:00;-18711.94;;;17.81;100.00
60583;BME280;46415;47.536;19.066;2023-08-06T06:49:04;-18711.81;;;17.81;100.00
60583;BME280;46415;47.536;19.066;2023-08-06T06:52:06;-18708.69;;;17.69;100.00
60583;BME280;46415;47.536;19.066;2023-08-06T06:55:09;-18707.03;;;17.63;100.00
60583;BME280;46415;47.536;19.066;2023-08-06T06:58:11;-18710.31;;;17.75;100.00
60583;BME280;46415;47.536;19.066;2023-08-06T07:01:14;-18712.06;;;17.82;100.00
60583;BME280;46415;47.536;19.066;2023-08-06T07:04:16;-18715.06;;;17.93;100.00
60583;BME280;46415;47.536;19.066;2023-08-06T07:07:19;-18714.81;;;17.92;100.00
60583;BME280;46415;47.536;19.066;2023-08-06T07:10:22;-18713.44;;;17.87;100.00
60583;BME280;46415;47.536;19.066;2023-08-06T07:13:24;-18713.97;;;17.89;100.00
60583;BME280;46415;47.536;19.066;2023-08-06T07:16:26;-18711.66;;;17.80;100.00
60583;BME280;46415;47.536;19.066;2023-08-06T07:19:29;-18708.41;;;17.68;100.00
60583;BME280;46415;47.536;19.066;2023-08-06T07:22:32;-18708.69;;;17.69;100.00
60583;BME280;46415;47.536;19.066;2023-08-06T07:25:34;-18708.13;;;17.67;100.00
60583;BME280;46415;47.536;19.066;2023-08-06T07:28:37;-18704.19;;;17.52;100.00
60583;BME280;46415;47.536;19.066;2023-08-06T07:31:40;-18702.28;;;17.45;100.00
60583;BME280;46415;47.536;19.066;2023-08-06T07:34:42;-18701.72;;;17.43;100.00
60583;BME280;46415;47.536;19.066;2023-08-06T07:37:45;-18700.66;;;17.39;100.00
60583;BME280;46415;47.536;19.066;2023-08-06T07:40:47;-18702.53;;;17.46;100.00
60583;BME280;46415;47.536;19.066;2023-08-06T07:43:50;-18703.63;;;17.50;100.00
60583;BME280;46415;47.536;19.066;2023-08-06T07:46:52;-18702.53;;;17.46;100.00
60583;BME280;46415;47.536;19.066;2023-08-06T07:49:55;-18704.59;;;17.54;100.00
60583;BME280;46415;47.536;19.066;2023-08-06T07:52:57;-18705.53;;;17.58;100.00
60583;BME280;46415;47.536;19.066;2023-08-06T07:56:00;-18705.28;;;17.57;100.00
60583;BME280;46415;47.536;19.066;2023-08-06T07:59:04;-18704.72;;;17.54;100.00
60583;BME280;46415;47.536;19.066;2023-08-06T08:02:07;-18702.28;;;17.45;100.00
60583;BME280;46415;47.536;19.066;2023-08-06T08:05:09;-18704.44;;;17.53;100.00
60583;BME280;46415;47.536;19.066;2023-08-06T08:08:12;-18704.84;;;17.55;100.00
60583;BME280;46415;47.536;19.066;2023-08-06T08:11:14;-18709.09;;;17.71;100.00
60583;BME280;46415;47.536;19.066;2023-08-06T08:14:18;-18711.41;;;17.79;100.00
60583;BME280;46415;47.536;19.066;2023-08-06T08:17:20;-18712.63;;;17.84;100.00
60583;BME280;46415;47.536;19.066;2023-08-06T08:20:23;-18719.56;;;18.10;100.00
60583;BME280;46415;47.536;19.066;2023-08-06T08:23:26;-18719.28;;;18.09;100.00
60583;BME280;46415;47.536;19.066;2023-08-06T08:26:28;-18716.28;;;17.98;100.00
60583;BME280;46415;47.536;19.066;2023-08-06T08:29:31;-18718.88;;;18.07;100.00
60583;BME280;46415;47.536;19.066;2023-08-06T08:32:33;-18719.69;;;18.10;100.00
60583;BME280;46415;47.536;19.066;2023-08-06T08:35:36;-18717.38;;;18.02;100.00
60583;BME280;46415;47.536;19.066;2023-08-06T08:38:39;-18725.13;;;18.30;100.00
60583;BME280;46415;47.536;19.066;2023-08-06T08:41:42;-18722.69;;;18.21;100.00
60583;BME280;46415;47.536;19.066;2023-08-06T08:44:44;-18723.38;;;18.24;100.00
60583;BME280;46415;47.536;19.066;2023-08-06T08:47:47;-18723.50;;;18.24;100.00
60583;BME280;46415;47.536;19.066;2023-08-06T08:50:50;-18724.84;;;18.29;100.00
60583;BME280;46415;47.536;19.066;2023-08-06T08:53:53;-18719.41;;;18.09;100.00
60583;BME280;46415;47.536;19.066;2023-08-06T08:56:57;-18715.06;;;17.93;100.00
60583;BME280;46415;47.536;19.066;2023-08-06T09:00:00;-18716.28;;;17.98;100.00
60583;BME280;46415;47.536;19.066;2023-08-06T09:03:04;-18712.63;;;17.84;100.00
60583;BME280;46415;47.536;19.066;2023-08-06T09:06:08;-18715.06;;;17.93;100.00
60583;BME280;46415;47.536;19.066;2023-08-06T09:09:15;-18713.44;;;17.87;100.00
60583;BME280;46415;47.536;19.066;2023-08-06T09:12:19;-18716.16;;;17.97;100.00
60583;BME280;46415;47.536;19.066;2023-08-06T09:15:25;-18722.41;;;18.20;100.00
60583;BME280;46415;47.536;19.066;2023-08-06T09:18:31;-18725.69;;;18.32;100.00
60583;BME280;46415;47.536;19.066;2023-08-06T09:21:36;-18728.00;;;18.41;100.00
60583;BME280;46415;47.536;19.066;2023-08-06T09:24:40;-18734.13;;;18.64;100.00
60583;BME280;46415;47.536;19.066;2023-08-06T09:27:45;-18734.13;;;18.64;100.00
60583;BME280;46415;47.536;19.066;2023-08-06T09:30:49;-18725.69;;;18.32;100.00
60583;BME280;46415;47.536;19.066;2023-08-06T09:33:51;-18724.03;;;18.26;100.00
60583;BME280;46415;47.536;19.066;2023-08-06T09:36:54;-18727.19;;;18.38;100.00
60583;BME280;46415;47.536;19.066;2023-08-06T09:39:56;-18725.41;;;18.31;100.00
60583;BME280;46415;47.536;19.066;2023-08-06T09:42:59;-18715.34;;;17.94;100.00
60583;BME280;46415;47.536;19.066;2023-08-06T09:46:12;-18712.34;;;17.83;100.00
60583;BME280;46415;47.536;19.066;2023-08-06T09:49:20;-18712.06;;;17.82;100.00
60583;BME280;46415;47.536;19.066;2023-08-06T09:52:25;-18706.63;;;17.62;100.00
60583;BME280;46415;47.536;19.066;2023-08-06T09:55:27;-18710.19;;;17.75;100.00
60583;BME280;46415;47.536;19.066;2023-08-06T09:58:30;-18712.63;;;17.84;100.00
60583;BME280;46415;47.536;19.066;2023-08-06T10:01:34;-18718.47;;;18.06;100.00
60583;BME280;46415;47.536;19.066;2023-08-06T10:04:37;-18720.66;;;18.14;100.00
60583;BME280;46415;47.536;19.066;2023-08-06T10:07:43;-18725.94;;;18.33;100.00
60583;BME280;46415;47.536;19.066;2023-08-06T10:10:46;-18724.47;;;18.28;100.00
60583;BME280;46415;47.536;19.066;2023-08-06T10:13:49;-18724.84;;;18.29;100.00
60583;BME280;46415;47.536;19.066;2023-08-06T10:16:54;-18725.53;;;18.32;100.00
60583;BME280;46415;47.536;19.066;2023-08-06T10:19:58;-18731.38;;;18.54;100.00
60583;BME280;46415;47.536;19.066;2023-08-06T10:23:02;-18729.75;;;18.48;100.00
60583;BME280;46415;47.536;19.066;2023-08-06T10:26:05;-18727.84;;;18.41;100.00
60583;BME280;46415;47.536;19.066;2023-08-06T10:32:53;-18721.72;;;18.18;100.00
60583;BME280;46415;47.536;19.066;2023-08-06T10:35:53;-18722.13;;;18.19;100.00
60583;BME280;46415;47.536;19.066;2023-08-06T10:39:03;-18730.03;;;18.49;100.00
60583;BME280;46415;47.536;19.066;2023-08-06T10:42:18;-18733.97;;;18.63;100.00
60583;BME280;46415;47.536;19.066;2023-08-06T10:45:21;-18733.28;;;18.61;100.00
60583;BME280;46415;47.536;19.066;2023-08-06T10:48:30;-18732.22;;;18.57;100.00
60583;BME280;46415;47.536;19.066;2023-08-06T10:51:35;-18730.84;;;18.52;100.00
60583;BME280;46415;47.536;19.066;2023-08-06T10:54:39;-18734.66;;;18.66;100.00
60583;BME280;46415;47.536;19.066;2023-08-06T10:57:41;-18732.34;;;18.57;100.00
60583;BME280;46415;47.536;19.066;2023-08-06T11:00:44;-18735.59;;;18.69;100.00
60583;BME280;46415;47.536;19.066;2023-08-06T11:03:46;-18735.59;;;18.69;100.00
60583;BME280;46415;47.536;19.066;2023-08-06T11:06:52;-18737.91;;;18.78;100.00
60583;BME280;46415;47.536;19.066;2023-08-06T11:10:00;-18735.19;;;18.68;100.00
60583;BME280;46415;47.536;19.066;2023-08-06T11:13:04;-18739.28;;;18.83;100.00
60583;BME280;46415;47.536;19.066;2023-08-06T11:16:06;-18742.28;;;18.94;100.00
60583;BME280;46415;47.536;19.066;2023-08-06T11:19:09;-18742.41;;;18.95;100.00
60583;BME280;46415;47.536;19.066;2023-08-06T11:22:11;-18742.53;;;18.95;100.00
60583;BME280;46415;47.536;19.066;2023-08-06T11:25:14;-18742.94;;;18.97;100.00
60583;BME280;46415;47.536;19.066;2023-08-06T11:28:18;-18742.00;;;18.93;100.00
60583;BME280;46415;47.536;19.066;2023-08-06T11:31:22;-18737.66;;;18.77;100.00
60583;BME280;46415;47.536;19.066;2023-08-06T11:34:25;-18739.56;;;18.84;100.00
60583;BME280;46415;47.536;19.066;2023-08-06T11:37:28;-18741.19;;;18.90;100.00
60583;BME280;46415;47.536;19.066;2023-08-06T11:40:30;-18738.47;;;18.80;100.00
60583;BME280;46415;47.536;19.066;2023-08-06T11:43:34;-18740.50;;;18.88;100.00
60583;BME280;46415;47.536;19.066;2023-08-06T11:46:55;-18742.00;;;18.93;100.00
60583;BME280;46415;47.536;19.066;2023-08-06T11:49:59;-18745.66;;;19.07;100.00
60583;BME280;46415;47.536;19.066;2023-08-06T11:53:01;-18743.91;;;19.00;100.00
60583;BME280;46415;47.536;19.066;2023-08-06T11:56:04;-18745.41;;;19.06;100.00
60583;BME280;46415;47.536;19.066;2023-08-06T11:59:06;-18752.19;;;19.31;100.00
60583;BME280;46415;47.536;19.066;2023-08-06T12:02:10;-18755.03;;;19.42;100.00
60583;BME280;46415;47.536;19.066;2023-08-06T12:05:14;-18756.13;;;19.46;100.00
60583;BME280;46415;47.536;19.066;2023-08-06T12:08:16;-18757.22;;;19.50;100.00
60583;BME280;46415;47.536;19.066;2023-08-06T12:11:22;-18758.16;;;19.53;100.00
60583;BME280;46415;47.536;19.066;2023-08-06T12:14:25;-18761.84;;;19.67;100.00
60583;BME280;46415;47.536;19.066;2023-08-06T12:17:28;-18761.03;;;19.64;100.00
60583;BME280;46415;47.536;19.066;2023-08-06T12:20:30;-18758.84;;;19.56;100.00
60583;BME280;46415;47.536;19.066;2023-08-06T12:23:33;-18765.09;;;19.79;100.00
60583;BME280;46415;47.536;19.066;2023-08-06T12:26:35;-18771.06;;;20.02;100.00
60583;BME280;46415;47.536;19.066;2023-08-06T12:29:42;-18767.41;;;19.88;100.00
60583;BME280;46415;47.536;19.066;2023-08-06T12:32:45;-18762.09;;;19.68;100.00
60583;BME280;46415;47.536;19.066;2023-08-06T12:35:48;-18762.09;;;19.68;100.00
60583;BME280;46415;47.536;19.066;2023-08-06T12:38:50;-18758.84;;;19.56;100.00
60583;BME280;46415;47.536;19.066;2023-08-06T12:41:53;-18757.63;;;19.51;100.00
60583;BME280;46415;47.536;19.066;2023-08-06T12:44:56;-18757.22;;;19.50;100.00
60583;BME280;46415;47.536;19.066;2023-08-06T12:47:59;-18763.88;;;19.75;100.00
60583;BME280;46415;47.536;19.066;2023-08-06T12:51:02;-18753.69;;;19.37;100.00
60583;BME280;46415;47.536;19.066;2023-08-06T12:54:04;-18754.22;;;19.39;100.00
60583;BME280;46415;47.536;19.066;2023-08-06T12:57:07;-18757.63;;;19.51;100.00
60583;BME280;46415;47.536;19.066;2023-08-06T13:00:09;-18749.34;;;19.21;100.00
60583;BME280;46415;47.536;19.066;2023-08-06T13:03:12;-18748.12;;;19.16;100.00
60583;BME280;46415;47.536;19.066;2023-08-06T13:06:15;-18747.03;;;19.12;100.00
60583;BME280;46415;47.536;19.066;2023-08-06T13:09:17;-18748.38;;;19.17;100.00
60583;BME280;46415;47.536;19.066;2023-08-06T13:12:20;-18749.06;;;19.20;100.00
60583;BME280;46415;47.536;19.066;2023-08-06T13:15:25;-18747.44;;;19.13;100.00
60583;BME280;46415;47.536;19.066;2023-08-06T13:18:27;-18748.25;;;19.16;100.00
60583;BME280;46415;47.536;19.066;2023-08-06T13:21:35;-18747.69;;;19.14;100.00
60583;BME280;46415;47.536;19.066;2023-08-06T13:24:54;-18743.91;;;19.00;100.00
60583;BME280;46415;47.536;19.066;2023-08-06T13:27:56;-18745.66;;;19.07;100.00
60583;BME280;46415;47.536;19.066;2023-08-06T13:30:59;-18754.22;;;19.39;100.00
60583;BME280;46415;47.536;19.066;2023-08-06T13:34:02;-18758.44;;;19.54;100.00
60583;BME280;46415;47.536;19.066;2023-08-06T13:37:05;-18761.03;;;19.64;100.00
60583;BME280;46415;47.536;19.066;2023-08-06T13:40:07;-18762.50;;;19.70;100.00
60583;BME280;46415;47.536;19.066;2023-08-06T13:43:11;-18754.34;;;19.39;100.00
60583;BME280;46415;47.536;19.066;2023-08-06T13:46:13;-18753.00;;;19.34;100.00
60583;BME280;46415;47.536;19.066;2023-08-06T13:49:20;-18753.13;;;19.35;100.00
60583;BME280;46415;47.536;19.066;2023-08-06T13:52:24;-18755.59;;;19.44;100.00
60583;BME280;46415;47.536;19.066;2023-08-06T13:55:27;-18755.19;;;19.42;100.00
60583;BME280;46415;47.536;19.066;2023-08-06T13:58:30;-18761.69;;;19.67;100.00
60583;BME280;46415;47.536;19.066;2023-08-06T14:01:33;-18745.53;;;19.06;100.00
60583;BME280;46415;47.536;19.066;2023-08-06T14:04:53;-18742.81;;;18.96;100.00
60583;BME280;46415;47.536;19.066;2023-08-06T14:07:55;-18745.25;;;19.05;100.00
60583;BME280;46415;47.536;19.066;2023-08-06T14:10:58;-18749.75;;;19.22;100.00
60583;BME280;46415;47.536;19.066;2023-08-06T14:14:00;-18747.44;;;19.13;100.00
60583;BME280;46415;47.536;19.066;2023-08-06T14:17:06;-18747.56;;;19.14;100.00
60583;BME280;46415;47.536;19.066;2023-08-06T14:20:08;-18748.53;;;19.17;100.00
60583;BME280;46415;47.536;19.066;2023-08-06T14:23:14;-18747.16;;;19.12;100.00
60583;BME280;46415;47.536;19.066;2023-08-06T14:26:16;-18750.56;;;19.25;100.00
60583;BME280;46415;47.536;19.066;2023-08-06T14:29:19;-18752.31;;;19.32;100.00
60583;BME280;46415;47.536;19.066;2023-08-06T14:32:22;-18752.88;;;19.34;100.00
60583;BME280;46415;47.536;19.066;2023-08-06T14:35:24;-18747.28;;;19.13;100.00
60583;BME280;46415;47.536;19.066;2023-08-06T14:38:27;-18750.28;;;19.24;100.00
60583;BME280;46415;47.536;19.066;2023-08-06T14:41:32;-18752.06;;;19.31;100.00
60583;BME280;46415;47.536;19.066;2023-08-06T14:44:35;-18752.59;;;19.33;100.00
60583;BME280;46415;47.536;19.066;2023-08-06T14:47:37;-18753.13;;;19.35;100.00
60583;BME280;46415;47.536;19.066;2023-08-06T14:50:40;-18752.47;;;19.32;100.00
60583;BME280;46415;47.536;19.066;2023-08-06T14:53:43;-18752.31;;;19.32;100.00
60583;BME280;46415;47.536;19.066;2023-08-06T14:56:46;-18748.25;;;19.16;100.00
60583;BME280;46415;47.536;19.066;2023-08-06T14:59:48;-18752.31;;;19.32;100.00
60583;BME280;46415;47.536;19.066;2023-08-06T15:02:51;-18750.41;;;19.25;100.00
60583;BME280;46415;47.536;19.066;2023-08-06T15:05:54;-18762.78;;;19.71;100.00
60583;BME280;46415;47.536;19.066;2023-08-06T15:08:56;-18772.03;;;20.05;100.00
60583;BME280;46415;47.536;19.066;2023-08-06T15:12:03;-18780.03;;;20.35;99.75
60583;BME280;46415;47.536;19.066;2023-08-06T15:15:06;-18786.00;;;20.57;97.86
60583;BME280;46415;47.536;19.066;2023-08-06T15:18:09;-18773.66;;;20.11;100.00
60583;BME280;46415;47.536;19.066;2023-08-06T15:21:11;-18772.84;;;20.08;100.00
60583;BME280;46415;47.536;19.066;2023-08-06T15:24:14;-18760.75;;;19.63;100.00
60583;BME280;46415;47.536;19.066;2023-08-06T15:27:16;-18759.53;;;19.59;100.00
60583;BME280;46415;47.536;19.066;2023-08-06T15:30:19;-18758.97;;;19.56;100.00
60583;BME280;46415;47.536;19.066;2023-08-06T15:33:22;-18758.31;;;19.54;100.00
60583;BME280;46415;47.536;19.066;2023-08-06T15:36:25;-18758.56;;;19.55;100.00
60583;BME280;46415;47.536;19.066;2023-08-06T15:39:27;-18758.72;;;19.55;100.00
60583;BME280;46415;47.536;19.066;2023-08-06T15:42:30;-18761.56;;;19.66;100.00
60583;BME280;46415;47.536;19.066;2023-08-06T15:45:32;-18775.81;;;20.19;99.24
60583;BME280;46415;47.536;19.066;2023-08-06T15:48:35;-18783.03;;;20.46;96.12